Search for airport 
image banner adimage banner adimage banner ad
image banner ad

P72 - Penn's Landing

Located in Philadelphia, United States

ICAO - P72, IATA -

Data provided by Airmate  

General information

Coordinates: N39°56'14" W75°8'29"
Elevation is 15 feet MSL.
Magnetic variation is -11° East
View others Airports in Pennsylvania

Operational data

Special qualification required
Current time UTC:
Current local time:
Weather at : KPHL - Philadelphia Intl ( 11 km )
METAR: KPHL 152254Z 32013G19KT 10SM SCT055 SCT090 26/13 A2978 RMK AO2 SLP082 T02560133 $
TAF: KPHL 152058Z 1521/1624 31013KT P6SM SCT040 FM160300 31005KT P6SM SKC FM161400 31010KT P6SM FEW050
View NOTAMs / SUP AIP / TFR affecting this airport [VIEW]
Communications frequencies: [VIEW]

Runways:

Airport contact information

Address: Philadelphia United States

Satellite view of P72